Time;durP1;ratioP1;P1;durP2;ratioP2;P2;SDS_P1;SDS_P2;PMS_P1;PMS_P2;Temp;Humidity;BMP_temperature;BMP_pressure;BME280_temperature;BME280_humidity;BME280_pressure;Samples;Min_cycle;Max_cycle;Signal;HPM_P1;HPM_P2
2023/05/31 00:00:08;;;;;;;16.55;14.52;;;;;;;10.72;78.15;101946.28;839679;23;1347;-79
2023/05/31 00:00:29;;;;;;;15.68;13.98;;;;;;;10.68;78.07;101946.16;835434;23;1184;-79
2023/05/31 00:00:49;;;;;;;15.10;13.35;;;;;;;10.71;78.16;101942.81;839291;23;1117;-79
2023/05/31 00:01:10;;;;;;;14.93;13.25;;;;;;;10.66;78.31;101945.19;841192;23;1017;-79
2023/05/31 00:01:31;;;;;;;16.23;13.60;;;;;;;10.74;78.11;101955.13;836307;23;1391;-79
2023/05/31 00:01:52;;;;;;;16.83;14.00;;;;;;;10.75;77.92;101963.00;839397;23;1253;-80
2023/05/31 00:02:13;;;;;;;17.70;14.10;;;;;;;10.66;78.02;101939.97;845258;23;1008;-79
2023/05/31 00:02:34;;;;;;;17.02;14.10;;;;;;;10.67;78.01;101941.75;843777;23;1111;-79
2023/05/31 00:02:55;;;;;;;16.53;14.00;;;;;;;10.67;78.28;101941.75;844896;23;1189;-79
2023/05/31 00:03:16;;;;;;;16.73;14.45;;;;;;;10.71;78.25;101953.25;847111;23;1241;-79
2023/05/31 00:03:41;;;;;;;17.77;14.35;;;;;;;10.75;78.49;101956.91;845303;23;1047;-79
2023/05/31 00:04:02;;;;;;;19.05;14.95;;;;;;;10.64;78.37;101940.72;845013;23;1124;-81
2023/05/31 00:04:23;;;;;;;18.83;14.85;;;;;;;10.67;78.16;101946.06;844086;23;895;-79
2023/05/31 00:04:43;;;;;;;17.17;14.57;;;;;;;10.72;78.28;101956.72;845016;23;996;-79
2023/05/31 00:05:04;;;;;;;17.10;14.20;;;;;;;10.75;78.32;101967.34;843721;23;1159;-79
2023/05/31 00:05:25;;;;;;;16.52;14.20;;;;;;;10.68;78.56;101946.16;845354;23;798;-79
2023/05/31 00:05:46;;;;;;;16.75;14.02;;;;;;;10.64;78.34;101944.22;844931;23;1110;-78
2023/05/31 00:06:07;;;;;;;15.70;13.57;;;;;;;10.72;78.14;101959.34;849356;23;1092;-79
2023/05/31 00:06:28;;;;;;;15.98;13.27;;;;;;;10.60;78.24;101939.69;843819;23;1116;-79
2023/05/31 00:06:48;;;;;;;16.70;13.50;;;;;;;10.61;78.38;101936.25;844169;23;1090;-81
2023/05/31 00:07:09;;;;;;;17.65;14.18;;;;;;;10.61;78.34;101936.25;849315;23;1079;-79
2023/05/31 00:07:30;;;;;;;17.58;14.73;;;;;;;10.60;78.29;101941.38;853511;23;707;-79
2023/05/31 00:07:50;;;;;;;16.03;14.23;;;;;;;10.64;78.53;101946.81;843331;23;1149;-79
2023/05/31 00:08:11;;;;;;;15.80;13.98;;;;;;;10.65;78.19;101947.72;845253;23;1076;-80
2023/05/31 00:08:32;;;;;;;16.40;13.87;;;;;;;10.67;78.39;101943.47;841112;23;712;-80
2023/05/31 00:08:52;;;;;;;17.00;14.03;;;;;;;10.59;78.45;101931.78;840761;23;1107;-80
2023/05/31 00:09:13;;;;;;;16.15;14.00;;;;;;;10.64;78.57;101949.44;845120;23;1071;-79
2023/05/31 00:09:34;;;;;;;16.13;14.23;;;;;;;10.67;78.48;101952.22;839811;23;1287;-79
2023/05/31 00:09:55;;;;;;;16.40;14.60;;;;;;;10.63;78.49;101945.03;839404;23;1200;-80
2023/05/31 00:10:15;;;;;;;16.27;14.48;;;;;;;10.72;78.74;101961.94;841131;23;1036;-80
2023/05/31 00:10:36;;;;;;;16.07;14.00;;;;;;;10.71;78.39;101957.56;841083;23;1048;-79
2023/05/31 00:10:57;;;;;;;17.40;14.57;;;;;;;10.60;78.52;101942.31;839469;23;1278;-80
2023/05/31 00:11:17;;;;;;;17.42;14.60;;;;;;;10.66;78.49;101954.75;839709;23;1167;-80
2023/05/31 00:11:38;;;;;;;18.13;15.13;;;;;;;10.66;78.31;101949.53;839560;23;1157;-79
2023/05/31 00:11:59;;;;;;;16.92;14.35;;;;;;;10.68;78.72;101958.31;842799;23;1231;-79
2023/05/31 00:12:20;;;;;;;16.45;13.95;;;;;;;10.64;78.55;101957.25;845284;23;1083;-80
2023/05/31 00:12:41;;;;;;;15.48;13.68;;;;;;;10.61;78.82;101944.09;839647;23;1128;-80
2023/05/31 00:13:01;;;;;;;15.98;13.70;;;;;;;10.64;78.86;101954.66;843220;23;1076;-80
2023/05/31 00:13:22;;;;;;;17.03;14.33;;;;;;;10.57;78.62;101942.13;841286;23;743;-79
2023/05/31 00:13:43;;;;;;;16.27;13.90;;;;;;;10.63;78.76;101955.47;840917;23;1946;-80
2023/05/31 00:14:03;;;;;;;15.98;14.02;;;;;;;10.60;78.78;101950.13;849201;23;1146;-81
2023/05/31 00:14:24;;;;;;;15.90;13.53;;;;;;;10.55;78.49;101935.97;843720;23;1154;-80
2023/05/31 00:14:46;;;;;;;16.00;13.65;;;;;;;10.58;78.64;101949.19;840837;23;985;-80
2023/05/31 00:15:07;;;;;;;16.15;13.77;;;;;;;10.57;78.52;101947.34;839828;23;1416;-81
2023/05/31 00:15:27;;;;;;;17.05;14.50;;;;;;;10.61;78.83;101962.34;839838;23;1255;-80
2023/05/31 00:15:48;;;;;;;17.08;14.40;;;;;;;10.58;78.69;101951.78;840879;23;1096;-80
2023/05/31 00:16:10;;;;;;;16.07;14.10;;;;;;;10.54;78.77;101942.00;837268;23;1061;-80
2023/05/31 00:16:31;;;;;;;16.42;13.82;;;;;;;10.65;78.88;101972.13;839445;23;1423;-80
2023/05/31 00:16:52;;;;;;;16.80;14.30;;;;;;;10.60;78.68;101957.97;842748;23;1244;-80
2023/05/31 00:17:13;;;;;;;17.73;14.35;;;;;;;10.61;78.69;101961.44;845278;23;1008;-80
2023/05/31 00:17:33;;;;;;;16.88;14.25;;;;;;;10.51;78.71;101947.09;835708;23;1115;-80
2023/05/31 00:17:54;;;;;;;17.38;14.07;;;;;;;10.59;78.66;101958.78;838482;23;1304;-80
2023/05/31 00:18:15;;;;;;;17.20;14.17;;;;;;;10.48;78.75;101947.84;839625;23;1266;-80
2023/05/31 00:18:35;;;;;;;16.65;14.00;;;;;;;10.54;78.78;101955.97;841113;23;1250;-80
2023/05/31 00:18:57;;;;;;;15.75;13.65;;;;;;;10.59;78.96;101961.41;835567;23;1122;-80
2023/05/31 00:19:18;;;;;;;16.20;14.10;;;;;;;10.56;78.61;101958.63;839579;23;1334;-80
2023/05/31 00:19:39;;;;;;;23.85;15.07;;;;;;;10.58;78.66;101964.84;840956;23;1175;-80
2023/05/31 00:20:00;;;;;;;24.10;15.07;;;;;;;10.52;79.02;101951.50;839119;23;1144;-80
2023/05/31 00:20:20;;;;;;;24.75;15.02;;;;;;;10.52;79.00;101959.31;847939;23;1167;-80
2023/05/31 00:20:41;;;;;;;17.40;14.10;;;;;;;10.50;78.78;101950.53;835743;23;1146;-80
2023/05/31 00:21:02;;;;;;;17.75;14.30;;;;;;;10.55;78.61;101967.28;839185;23;1147;-80
2023/05/31 00:21:23;;;;;;;16.70;14.20;;;;;;;10.46;78.56;101951.19;845289;23;979;-80
2023/05/31 00:21:47;;;;;;;17.23;14.68;;;;;;;10.46;78.94;101943.38;843198;23;1369;-80
2023/05/31 00:22:09;;;;;;;16.50;14.70;;;;;;;10.53;79.06;101959.41;849392;23;1055;-79
2023/05/31 00:22:30;;;;;;;17.00;15.20;;;;;;;10.47;78.76;101956.50;847060;23;1162;-80
2023/05/31 00:22:51;;;;;;;17.60;15.67;;;;;;;10.43;79.01;101944.09;851553;23;1019;-80
2023/05/31 00:23:11;;;;;;;19.08;15.55;;;;;;;10.50;79.03;101958.38;839356;23;1273;-80
2023/05/31 00:23:32;;;;;;;18.70;15.40;;;;;;;10.48;79.10;101959.97;845267;23;776;-80
2023/05/31 00:23:53;;;;;;;18.03;14.67;;;;;;;10.49;79.00;101959.16;846720;23;1196;-80
2023/05/31 00:24:14;;;;;;;17.33;14.35;;;;;;;10.48;78.97;101960.88;845130;23;1032;-80
2023/05/31 00:24:34;;;;;;;18.20;14.68;;;;;;;10.45;79.23;101949.41;845264;23;731;-79
2023/05/31 00:24:55;;;;;;;17.42;14.40;;;;;;;10.50;79.07;101966.19;840910;23;1010;-80
2023/05/31 00:25:16;;;;;;;18.45;14.45;;;;;;;10.39;79.25;101944.78;853219;23;1003;-79
2023/05/31 00:25:36;;;;;;;18.83;14.40;;;;;;;10.40;79.14;101947.47;844969;23;1039;-80
2023/05/31 00:25:57;;;;;;;19.47;15.10;;;;;;;10.41;79.29;101953.59;849085;23;977;-80
2023/05/31 00:26:18;;;;;;;17.67;15.15;;;;;;;10.44;79.36;101956.31;843796;23;1341;-80
2023/05/31 00:26:40;;;;;;;16.33;14.63;;;;;;;10.48;79.39;101962.59;834666;23;1279;-80
2023/05/31 00:27:01;;;;;;;16.05;14.35;;;;;;;10.44;79.55;101958.06;834672;23;1180;-77
2023/05/31 00:27:23;;;;;;;15.98;14.27;;;;;;;10.39;79.22;101950.03;835892;23;1346;-77
2023/05/31 00:27:45;;;;;;;16.73;14.57;;;;;;;10.39;79.47;101950.91;836834;23;958;-78
2023/05/31 00:28:06;;;;;;;17.88;14.88;;;;;;;10.48;79.63;101967.81;845179;23;1141;-80
2023/05/31 00:28:26;;;;;;;17.95;14.90;;;;;;;10.41;79.66;101944.06;845171;23;834;-80
2023/05/31 00:28:48;;;;;;;17.80;14.95;;;;;;;10.45;79.51;101949.41;843441;23;1245;-80
2023/05/31 00:29:09;;;;;;;17.38;14.88;;;;;;;10.39;79.64;101950.03;845243;23;961;-81
2023/05/31 00:29:30;;;;;;;17.42;14.75;;;;;;;10.37;79.17;101944.72;843445;23;1116;-80
2023/05/31 00:29:50;;;;;;;17.10;14.63;;;;;;;10.43;79.65;101943.22;839421;23;1058;-79
2023/05/31 00:30:12;;;;;;;17.20;14.57;;;;;;;10.49;79.58;101966.97;839337;23;1104;-79
2023/05/31 00:30:32;;;;;;;17.20;14.48;;;;;;;10.39;79.43;101956.13;843738;23;1164;-79
2023/05/31 00:30:53;;;;;;;18.17;14.48;;;;;;;10.39;79.75;101944.78;839432;23;1057;-80
2023/05/31 00:31:14;;;;;;;18.38;14.60;;;;;;;10.46;79.78;101956.41;841201;23;1012;-80
2023/05/31 00:31:34;;;;;;;18.47;15.03;;;;;;;10.39;79.58;101939.59;835911;23;1228;-79
2023/05/31 00:31:56;;;;;;;17.50;15.07;;;;;;;10.37;79.47;101942.09;838578;23;1201;-79
2023/05/31 00:32:17;;;;;;;16.52;14.63;;;;;;;10.33;79.38;101934.06;843781;23;1335;-80
2023/05/31 00:32:38;;;;;;;15.93;14.00;;;;;;;10.36;79.72;101942.94;835514;23;1054;-79
2023/05/31 00:32:58;;;;;;;16.47;14.30;;;;;;;10.40;79.39;101950.06;836990;23;909;-80
2023/05/31 00:33:19;;;;;;;16.67;14.60;;;;;;;10.33;79.51;101940.16;835655;23;1164;-80
2023/05/31 00:33:43;;;;;;;17.77;15.20;;;;;;;10.43;79.36;101943.22;843566;23;1950;-79
2023/05/31 00:34:04;;;;;;;17.08;15.23;;;;;;;10.37;79.44;101942.09;840977;23;1044;-79
2023/05/31 00:34:25;;;;;;;17.20;14.98;;;;;;;10.48;79.48;101945.22;839630;23;1217;-79
2023/05/31 00:34:46;;;;;;;16.95;14.65;;;;;;;10.47;79.57;101952.97;838376;23;1062;-80
2023/05/31 00:35:07;;;;;;;17.63;14.40;;;;;;;10.50;79.55;101953.13;847848;23;1151;-80
2023/05/31 00:35:28;;;;;;;17.70;14.55;;;;;;;10.41;79.68;101940.53;838663;23;1236;-80
2023/05/31 00:35:49;;;;;;;18.10;14.77;;;;;;;10.39;79.96;101947.41;839208;23;1207;-80
2023/05/31 00:36:09;;;;;;;17.30;14.50;;;;;;;10.37;79.69;101942.09;841133;23;957;-80
2023/05/31 00:36:32;;;;;;;16.80;14.10;;;;;;;10.36;79.69;101940.31;841170;23;798;-79
2023/05/31 00:36:53;;;;;;;16.63;14.50;;;;;;;10.40;80.01;101949.19;840174;23;1271;-79
2023/05/31 00:37:14;;;;;;;16.70;14.57;;;;;;;10.36;79.74;101945.53;839270;23;1172;-79
2023/05/31 00:37:37;;;;;;;16.40;14.40;;;;;;;10.38;79.78;101949.09;838131;23;825;-79
2023/05/31 00:37:58;;;;;;;16.30;14.02;;;;;;;10.29;80.04;101925.19;840956;23;894;-80
2023/05/31 00:38:18;;;;;;;17.20;14.30;;;;;;;10.36;79.76;101944.63;843810;23;1212;-79
2023/05/31 00:38:39;;;;;;;19.08;14.63;;;;;;;10.38;79.80;101954.31;839546;23;1454;-79
2023/05/31 00:39:00;;;;;;;18.45;14.30;;;;;;;10.32;80.19;101937.50;840997;23;938;-80
2023/05/31 00:39:21;;;;;;;17.48;14.00;;;;;;;10.33;79.92;101945.38;845257;23;1117;-80
2023/05/31 00:39:42;;;;;;;17.70;13.80;;;;;;;10.36;80.18;101947.25;842194;23;1210;-80
2023/05/31 00:40:05;;;;;;;17.10;13.57;;;;;;;10.41;79.93;101957.09;839587;23;1231;-79
2023/05/31 00:40:26;;;;;;;17.70;14.23;;;;;;;10.29;79.97;101938.25;837157;23;855;-79
2023/05/31 00:40:47;;;;;;;16.70;14.30;;;;;;;10.35;80.22;101948.97;847600;23;1225;-80
2023/05/31 00:41:09;;;;;;;16.70;14.05;;;;;;;10.32;79.91;101942.72;849328;23;960;-80
2023/05/31 00:41:30;;;;;;;15.45;13.40;;;;;;;10.31;79.91;101944.41;849256;23;803;-79
2023/05/31 00:41:51;;;;;;;15.37;13.43;;;;;;;10.29;79.61;101933.00;843330;23;1166;-80
2023/05/31 00:42:12;;;;;;;14.95;13.35;;;;;;;10.39;80.08;101956.13;845179;23;1090;-79
2023/05/31 00:42:32;;;;;;;15.68;13.50;;;;;;;10.37;79.67;101949.94;841101;23;791;-80
2023/05/31 00:43:30;;;;;;;15.30;13.50;;;;;;;10.41;79.77;101964.94;844822;23;1113;-80
2023/05/31 00:43:51;;;;;;;16.80;14.27;;;;;;;10.38;80.07;101950.84;835240;23;1192;-80
2023/05/31 00:44:12;;;;;;;16.90;14.15;;;;;;;10.28;79.77;101937.31;841204;23;982;-80
2023/05/31 00:44:32;;;;;;;15.73;13.60;;;;;;;10.30;80.15;101936.53;843836;23;1027;-79
2023/05/31 00:44:53;;;;;;;15.40;13.60;;;;;;;10.31;80.06;101938.31;839392;23;1075;-80
2023/05/31 00:45:14;;;;;;;16.63;13.70;;;;;;;10.32;79.80;101943.59;845271;23;949;-79
2023/05/31 00:45:35;;;;;;;16.63;13.48;;;;;;;10.29;79.98;101935.63;841319;23;692;-79
2023/05/31 00:45:56;;;;;;;16.37;13.30;;;;;;;10.40;79.58;101954.41;841007;23;962;-80
2023/05/31 00:46:38;;;;;;;15.90;12.95;;;;;;;10.35;79.77;101948.97;837163;23;1065;-79
2023/05/31 00:46:59;;;;;;;17.08;13.20;;;;;;;10.37;79.66;101952.53;836466;23;1061;-79
2023/05/31 00:47:20;;;;;;;18.33;13.82;;;;;;;10.32;79.63;101943.59;843834;23;1203;-79
2023/05/31 00:47:41;;;;;;;17.52;13.90;;;;;;;10.32;79.66;101937.50;839677;23;1338;-80
2023/05/31 00:48:03;;;;;;;18.02;14.55;;;;;;;10.34;79.88;101947.19;835664;23;1261;-79
2023/05/31 00:48:23;;;;;;;17.64;14.72;;;;;;;10.28;79.81;101936.44;835789;23;1239;-80
2023/05/31 00:48:45;;;;;;;17.87;14.27;;;;;;;10.31;79.89;101947.03;839021;23;1260;-79
2023/05/31 00:49:06;;;;;;;16.25;13.27;;;;;;;10.32;79.72;101954.03;841064;23;1107;-79
2023/05/31 00:49:28;;;;;;;15.60;12.50;;;;;;;10.28;80.08;101944.28;835916;23;1172;-79
2023/05/31 00:49:49;;;;;;;14.32;12.73;;;;;;;10.33;79.76;101954.94;835405;23;1401;-79
2023/05/31 00:50:10;;;;;;;14.90;12.95;;;;;;;10.27;79.88;101945.09;838922;23;1266;-80
2023/05/31 00:50:31;;;;;;;14.88;12.90;;;;;;;10.23;79.77;101937.94;843857;23;1224;-79
2023/05/31 00:50:51;;;;;;;14.50;12.88;;;;;;;10.31;80.18;101951.38;844817;23;1182;-80
2023/05/31 00:51:12;;;;;;;15.02;13.40;;;;;;;10.22;80.13;101936.13;843521;23;1152;-80
2023/05/31 00:51:36;;;;;;;16.50;13.70;;;;;;;10.31;79.88;101954.84;835861;23;1295;-80
2023/05/31 00:51:57;;;;;;;16.92;13.63;;;;;;;10.21;80.20;101939.56;839013;23;1173;-80
2023/05/31 00:52:18;;;;;;;16.05;13.00;;;;;;;10.27;80.19;101950.31;835779;23;1212;-80
2023/05/31 00:52:39;;;;;;;14.93;12.82;;;;;;;10.21;80.21;101939.56;836966;23;1139;-80
2023/05/31 00:53:01;;;;;;;14.13;12.50;;;;;;;10.21;80.04;101942.16;836977;23;1080;-80
2023/05/31 00:53:22;;;;;;;14.55;12.75;;;;;;;10.27;80.37;101958.16;839775;23;1363;-78
2023/05/31 00:53:45;;;;;;;14.85;13.25;;;;;;;10.22;80.08;101943.94;844851;23;1956;-77
2023/05/31 00:54:06;;;;;;;15.88;13.95;;;;;;;10.18;80.42;101939.41;839534;23;1197;-77
2023/05/31 00:54:27;;;;;;;16.42;13.85;;;;;;;10.20;80.34;101949.06;835737;23;1109;-77
2023/05/31 00:54:49;;;;;;;16.50;13.63;;;;;;;10.17;80.23;101942.81;839251;23;1347;-77
2023/05/31 00:55:10;;;;;;;15.20;13.20;;;;;;;10.18;80.75;101939.41;839899;23;1098;-78
2023/05/31 00:55:32;;;;;;;14.65;12.85;;;;;;;10.25;80.64;101952.84;843092;23;1278;-79
2023/05/31 00:55:53;;;;;;;14.77;12.55;;;;;;;10.17;80.18;101942.81;843659;23;1349;-79
2023/05/31 00:56:15;;;;;;;15.75;12.85;;;;;;;10.20;80.68;101940.38;841104;23;1032;-79
2023/05/31 00:56:36;;;;;;;16.08;13.10;;;;;;;10.16;80.51;101941.94;842424;23;1273;-79
2023/05/31 00:56:57;;;;;;;16.25;13.60;;;;;;;10.28;80.32;101952.97;844253;23;1349;-79
2023/05/31 00:57:18;;;;;;;15.52;13.32;;;;;;;10.22;80.29;101943.94;845275;23;999;-79
2023/05/31 00:57:40;;;;;;;16.50;13.50;;;;;;;10.21;80.25;101944.78;847668;23;1267;-79
2023/05/31 00:58:01;;;;;;;15.70;12.88;;;;;;;10.27;80.38;101955.53;839041;23;1221;-79
2023/05/31 00:58:23;;;;;;;17.15;12.90;;;;;;;10.21;80.46;101944.78;843900;23;1278;-79
2023/05/31 00:58:45;;;;;;;15.73;12.80;;;;;;;10.26;80.26;101954.63;838597;23;1361;-79
2023/05/31 00:59:06;;;;;;;16.00;12.82;;;;;;;10.25;80.42;101959.75;839471;23;1158;-79
2023/05/31 00:59:27;;;;;;;14.82;13.20;;;;;;;10.22;80.56;101951.78;841244;23;720;-79
2023/05/31 00:59:48;;;;;;;14.90;13.30;;;;;;;10.26;80.57;101953.75;840720;23;997;-80
2023/05/31 01:00:09;;;;;;;14.80;13.18;;;;;;;10.13;80.66;101940.06;839654;23;1033;-80
2023/05/31 01:00:30;;;;;;;15.00;12.98;;;;;;;10.18;80.72;101948.13;841157;23;787;-80
2023/05/31 01:00:51;;;;;;;15.48;12.95;;;;;;;10.15;80.40;101941.03;840534;23;1091;-79
2023/05/31 01:01:13;;;;;;;14.90;12.88;;;;;;;10.25;80.38;101962.38;834928;23;1243;-78
2023/05/31 01:01:34;;;;;;;15.88;12.63;;;;;;;10.09;80.58;101929.41;841130;23;819;-79
2023/05/31 01:01:57;;;;;;;15.68;12.85;;;;;;;10.19;80.54;101951.63;844703;23;1088;-79
2023/05/31 01:02:18;;;;;;;15.30;12.88;;;;;;;10.15;80.51;101943.63;845165;23;1083;-79
2023/05/31 01:02:41;;;;;;;14.95;13.32;;;;;;;10.24;80.75;101963.19;840949;23;1196;-80
2023/05/31 01:03:02;;;;;;;15.25;13.10;;;;;;;10.23;80.68;101956.19;840884;23;898;-79
2023/05/31 01:03:23;;;;;;;15.45;13.30;;;;;;;10.15;80.45;101948.84;839688;23;1151;-79
2023/05/31 01:03:44;;;;;;;14.85;12.90;;;;;;;10.14;80.66;101948.81;835617;23;1354;-79
2023/05/31 01:04:07;;;;;;;14.98;12.68;;;;;;;10.14;80.67;101949.69;841075;23;1016;-80
2023/05/31 01:04:27;;;;;;;14.27;11.88;;;;;;;10.24;80.79;101965.81;839000;23;1411;-80
2023/05/31 01:04:49;;;;;;;14.05;11.82;;;;;;;10.22;80.78;101963.13;843394;23;1172;-80
2023/05/31 01:05:10;;;;;;;14.18;11.95;;;;;;;10.24;80.78;101968.41;835929;23;1117;-79
2023/05/31 01:05:31;;;;;;;14.80;12.75;;;;;;;10.19;80.78;101949.03;843312;23;1457;-80
2023/05/31 01:05:52;;;;;;;15.73;13.18;;;;;;;10.31;80.63;101967.91;835365;23;1030;-79
2023/05/31 01:06:13;;;;;;;15.03;12.53;;;;;;;10.23;80.47;101943.16;839676;23;1132;-79
2023/05/31 01:06:34;;;;;;;15.07;12.55;;;;;;;10.31;80.48;101962.69;839521;23;1212;-79
2023/05/31 01:06:56;;;;;;;14.93;12.40;;;;;;;10.31;80.54;101957.47;836229;23;1184;-79
2023/05/31 01:07:17;;;;;;;14.95;12.18;;;;;;;10.29;80.37;101948.69;837213;23;1048;-79
2023/05/31 01:07:38;;;;;;;14.70;12.07;;;;;;;10.35;80.20;101950.69;839494;23;1164;-79
2023/05/31 01:07:58;;;;;;;13.57;12.03;;;;;;;10.37;79.94;101947.31;834590;23;1130;-80
2023/05/31 01:08:20;;;;;;;14.15;12.43;;;;;;;10.46;80.01;101959.94;839576;23;1143;-80
2023/05/31 01:08:42;;;;;;;14.43;12.38;;;;;;;10.32;80.03;101943.59;840938;23;1037;-79
2023/05/31 01:09:07;;;;;;;14.70;12.40;;;;;;;10.41;80.13;101949.28;835457;23;1281;-79
2023/05/31 01:09:30;;;;;;;14.20;12.40;;;;;;;10.43;79.73;101953.66;837064;23;819;-80
2023/05/31 01:09:52;;;;;;;14.20;12.52;;;;;;;10.38;79.99;101946.50;839326;23;1891;-80
2023/05/31 01:10:13;;;;;;;13.85;11.95;;;;;;;10.46;79.51;101959.03;845135;23;1028;-79
2023/05/31 01:10:33;;;;;;;13.68;12.10;;;;;;;10.37;79.53;101942.09;845138;23;859;-79
2023/05/31 01:10:59;;;;;;;14.03;12.20;;;;;;;10.46;79.81;101956.41;844813;23;1075;-80
2023/05/31 01:12:09;;;;;;;15.63;12.88;;;;;;;10.46;79.66;101962.53;839700;23;1137;-80
2023/05/31 01:13:02;;;;;;;14.18;12.60;;;;;;;10.43;79.73;101966.72;832100;23;1197;-80
2023/05/31 01:13:37;;;;;;;15.13;12.88;;;;;;;10.38;79.75;101963.88;845040;23;1300;-80
2023/05/31 01:14:39;;;;;;;14.98;12.98;;;;;;;10.31;79.76;101941.81;835563;23;1068;-79
2023/05/31 01:15:18;;;;;;;14.85;12.45;;;;;;;10.35;79.87;101962.03;816091;24;1217;-80
2023/05/31 01:16:06;;;;;;;15.93;12.80;;;;;;;10.36;79.90;101961.19;828001;23;1149;-79
2023/05/31 01:16:36;;;;;;;14.60;12.50;;;;;;;10.23;80.14;101945.75;841223;23;787;-79
2023/05/31 01:17:05;;;;;;;13.90;12.40;;;;;;;10.35;80.33;101962.03;834946;23;1171;-80
2023/05/31 01:17:34;;;;;;;13.45;12.05;;;;;;;10.35;80.46;101959.41;839733;23;1317;-79
2023/05/31 01:18:25;;;;;;;13.95;12.45;;;;;;;10.26;80.33;101945.94;835269;23;1346;-79
2023/05/31 01:18:54;;;;;;;14.65;12.85;;;;;;;10.30;80.22;101952.19;838321;23;1007;-79
2023/05/31 01:19:29;;;;;;;13.85;12.35;;;;;;;10.29;80.09;101940.84;843768;23;1059;-80
2023/05/31 01:19:54;;;;;;;13.95;12.30;;;;;;;10.30;80.64;101954.81;842065;23;1256;-79
2023/05/31 01:20:17;;;;;;;14.07;12.32;;;;;;;10.28;80.21;101952.09;841161;23;1097;-80
2023/05/31 01:20:43;;;;;;;13.93;12.43;;;;;;;10.30;80.17;101960.91;834242;23;1275;-80
2023/05/31 01:21:05;;;;;;;14.10;12.50;;;;;;;10.30;80.67;101958.28;837259;23;1151;-80
2023/05/31 01:21:52;;;;;;;14.35;12.25;;;;;;;10.25;80.70;101950.25;842746;23;1281;-80
2023/05/31 01:22:20;;;;;;;14.23;12.40;;;;;;;10.20;80.68;101943.84;847208;23;1828;-79
2023/05/31 01:22:52;;;;;;;13.88;12.13;;;;;;;10.29;80.61;101953.88;839680;23;1150;-80
2023/05/31 01:23:51;;;;;;;13.77;12.30;;;;;;;10.28;80.38;101957.31;838769;23;1396;-80
2023/05/31 01:24:34;;;;;;;14.63;12.50;;;;;;;10.28;80.61;101957.31;849284;23;955;-79
2023/05/31 01:25:01;;;;;;;13.50;12.10;;;;;;;10.15;80.79;101935.81;842135;23;1121;-80
2023/05/31 01:25:33;;;;;;;15.27;12.70;;;;;;;10.27;80.70;101960.75;843713;23;1062;-80
2023/05/31 01:26:35;;;;;;;15.57;12.30;;;;;;;10.26;80.69;101954.63;847535;23;1212;-80
2023/05/31 01:27:00;;;;;;;14.25;12.43;;;;;;;10.17;80.63;101937.59;843104;23;1142;-79
2023/05/31 01:27:22;;;;;;;15.20;12.60;;;;;;;10.10;80.53;101932.09;839622;23;1193;-79
2023/05/31 01:27:45;;;;;;;16.17;13.18;;;;;;;10.24;80.61;101952.75;838873;23;1014;-80
2023/05/31 01:28:07;;;;;;;15.43;13.32;;;;;;;10.20;80.38;101948.19;839839;23;1216;-80
2023/05/31 01:28:32;;;;;;;15.75;13.20;;;;;;;10.22;80.88;101957.91;838661;23;1360;-80
2023/05/31 01:28:58;;;;;;;14.60;12.65;;;;;;;10.20;80.66;101949.06;839174;23;1395;-80
2023/05/31 01:29:21;;;;;;;14.40;12.07;;;;;;;10.21;80.57;101955.19;843795;23;1171;-79
2023/05/31 01:29:43;;;;;;;14.23;12.30;;;;;;;10.21;80.48;101960.41;845202;23;948;-80
2023/05/31 01:30:08;;;;;;;14.18;12.68;;;;;;;10.13;80.63;101936.56;844049;23;1462;-80
2023/05/31 01:30:30;;;;;;;14.00;12.55;;;;;;;10.10;80.62;101939.94;845280;23;728;-79
2023/05/31 01:30:53;;;;;;;13.07;11.68;;;;;;;10.08;80.50;101943.28;845177;23;997;-80
2023/05/31 01:31:16;;;;;;;13.20;11.45;;;;;;;10.03;80.69;101940.44;841488;23;1060;-80
2023/05/31 01:31:38;;;;;;;13.20;11.80;;;;;;;10.04;80.76;101941.31;839866;23;1336;-79
2023/05/31 01:32:00;;;;;;;13.80;12.30;;;;;;;10.00;80.65;101937.66;845495;23;1105;-80
2023/05/31 01:32:22;;;;;;;13.50;11.82;;;;;;;10.12;80.98;101959.16;843865;23;1291;-80
2023/05/31 01:32:45;;;;;;;15.10;12.40;;;;;;;10.08;80.88;101944.16;841104;23;1087;-80
2023/05/31 01:33:12;;;;;;;14.30;12.25;;;;;;;10.11;80.81;101954.75;845491;23;1022;-80
2023/05/31 01:33:34;;;;;;;15.80;12.77;;;;;;;10.03;80.65;101937.84;841369;23;767;-80
2023/05/31 01:33:55;;;;;;;15.43;12.90;;;;;;;10.04;80.94;101938.72;841033;23;1148;-80
2023/05/31 01:34:18;;;;;;;15.30;12.98;;;;;;;10.01;80.90;101939.47;839806;23;1139;-80
2023/05/31 01:34:39;;;;;;;15.90;13.38;;;;;;;10.05;80.95;101941.41;841287;23;1168;-80
2023/05/31 01:35:00;;;;;;;15.48;13.07;;;;;;;9.99;80.87;101935.88;839420;23;1208;-80
2023/05/31 01:35:20;;;;;;;15.52;13.57;;;;;;;10.05;80.80;101944.03;841347;23;999;-80
2023/05/31 01:35:41;;;;;;;14.90;13.30;;;;;;;10.02;80.97;101946.50;841230;23;1029;-80
2023/05/31 01:36:03;;;;;;;15.88;14.18;;;;;;;10.02;80.88;101943.88;834974;23;1299;-80
2023/05/31 01:36:24;;;;;;;15.40;13.70;;;;;;;9.98;81.06;101942.84;835784;23;1213;-79
2023/05/31 01:36:45;;;;;;;15.57;13.23;;;;;;;9.99;81.10;101944.63;840531;23;1112;-80
2023/05/31 01:37:06;;;;;;;14.63;12.65;;;;;;;10.02;81.32;101951.72;839864;23;1217;-80
2023/05/31 01:37:26;;;;;;;15.30;13.13;;;;;;;9.97;81.02;101946.22;842852;23;1167;-80
2023/05/31 01:37:47;;;;;;;15.85;13.77;;;;;;;9.95;81.21;101936.56;842196;23;1099;-80
2023/05/31 01:38:08;;;;;;;14.90;13.30;;;;;;;9.97;81.34;101941.00;845350;23;971;-80
2023/05/31 01:38:29;;;;;;;13.90;12.40;;;;;;;10.02;81.44;101951.72;845503;23;837;-79
2023/05/31 01:38:50;;;;;;;13.90;12.40;;;;;;;9.96;81.21;101938.34;839816;23;1469;-80
2023/05/31 01:39:11;;;;;;;14.77;12.40;;;;;;;9.96;81.34;101940.97;839956;23;1285;-80
2023/05/31 01:39:32;;;;;;;15.32;12.43;;;;;;;9.95;81.19;101937.44;843629;23;1356;-80
2023/05/31 01:39:55;;;;;;;15.50;12.45;;;;;;;10.05;81.43;101957.06;845191;23;1181;-80
2023/05/31 01:40:17;;;;;;;15.00;12.43;;;;;;;10.05;81.48;101958.75;841483;23;1136;-79
2023/05/31 01:40:39;;;;;;;14.48;12.88;;;;;;;10.04;81.18;101963.09;845335;23;1004;-79
2023/05/31 01:41:03;;;;;;;14.63;13.00;;;;;;;10.05;81.39;101963.97;841380;23;1057;-80
2023/05/31 01:41:28;;;;;;;15.05;13.38;;;;;;;10.03;81.28;101961.31;835993;23;1376;-80
2023/05/31 01:41:51;;;;;;;14.73;12.90;;;;;;;9.96;81.60;101948.78;839675;23;1037;-80
2023/05/31 01:42:12;;;;;;;16.92;13.10;;;;;;;9.94;81.50;101946.09;843959;23;1319;-79
2023/05/31 01:42:34;;;;;;;17.13;13.00;;;;;;;9.93;81.19;101940.78;845414;23;766;-80
2023/05/31 01:42:55;;;;;;;17.80;13.50;;;;;;;10.04;81.63;101963.09;839143;23;1307;-80
2023/05/31 01:43:17;;;;;;;15.68;13.40;;;;;;;9.98;81.58;101949.75;841329;23;1006;-80
2023/05/31 01:43:41;;;;;;;15.25;13.13;;;;;;;9.91;81.64;101939.84;835650;23;1264;-80
2023/05/31 01:44:03;;;;;;;15.15;13.15;;;;;;;9.99;81.60;101955.06;841146;23;1024;-80
2023/05/31 01:44:24;;;;;;;15.30;13.00;;;;;;;10.02;81.52;101954.31;836005;23;1319;-79
2023/05/31 01:44:47;;;;;;;14.32;12.80;;;;;;;10.02;81.35;101954.31;839548;23;1359;-79
2023/05/31 01:45:09;;;;;;;14.32;12.70;;;;;;;10.08;81.48;101954.59;839945;23;1200;-80
2023/05/31 01:45:31;;;;;;;14.68;12.95;;;;;;;10.15;81.40;101966.25;841504;23;855;-80
2023/05/31 01:45:56;;;;;;;14.73;12.90;;;;;;;10.09;81.19;101958.97;839612;23;1262;-79
2023/05/31 01:46:18;;;;;;;15.00;13.20;;;;;;;10.08;80.87;101949.38;839800;23;1366;-78
2023/05/31 01:46:41;;;;;;;15.68;13.30;;;;;;;10.01;81.05;101942.97;839664;23;1263;-78
2023/05/31 01:47:02;;;;;;;15.68;13.43;;;;;;;10.05;81.26;101954.44;836535;23;1087;-79
2023/05/31 01:47:26;;;;;;;15.50;13.40;;;;;;;10.00;80.96;101959.44;841403;23;1348;-79
2023/05/31 01:47:48;;;;;;;15.20;13.05;;;;;;;9.95;81.04;101952.22;842798;23;1339;-79